Time;durP1;ratioP1;P1;durP2;ratioP2;P2;SDS_P1;SDS_P2;PMS_P1;PMS_P2;Temp;Humidity;BMP_temperature;BMP_pressure;BME280_temperature;BME280_humidity;BME280_pressure;Samples;Min_cycle;Max_cycle;Signal;HPM_P1;HPM_P2
2021/06/19 00:00:38;;;;;;;1999.90;999.90;;;24.20;99.90;;;;;;5039026;28;20194;-76
2021/06/19 00:03:03;;;;;;;1999.90;999.90;;;24.20;99.90;;;;;;5021336;28;20229;-76
2021/06/19 00:05:29;;;;;;;1999.90;999.90;;;24.30;99.90;;;;;;5021245;28;20197;-76
2021/06/19 00:07:56;;;;;;;1999.90;999.90;;;24.20;99.90;;;;;;5020256;28;20174;-75
2021/06/19 00:10:22;;;;;;;1999.90;999.90;;;23.80;99.90;;;;;;5023388;28;20179;-76
2021/06/19 00:12:49;;;;;;;1999.90;999.90;;;23.50;99.90;;;;;;5038608;28;20213;-76
2021/06/19 00:15:17;;;;;;;1999.90;999.90;;;23.40;99.90;;;;;;5039024;28;20175;-76
2021/06/19 00:17:43;;;;;;;1999.90;999.90;;;23.30;99.90;;;;;;5038749;28;20661;-76
2021/06/19 00:20:22;;;;;;;1999.90;999.90;;;23.20;99.90;;;;;;5038726;28;20247;-76
2021/06/19 00:22:48;;;;;;;1999.90;999.90;;;23.30;99.90;;;;;;5038810;28;20249;-76
2021/06/19 00:25:15;;;;;;;1999.90;999.90;;;23.50;99.90;;;;;;5034886;28;20645;-76
2021/06/19 00:27:41;;;;;;;1999.90;999.90;;;23.60;99.90;;;;;;5035444;28;20170;-76
2021/06/19 00:30:09;;;;;;;1999.90;999.90;;;23.70;99.90;;;;;;5035403;28;20182;-76
2021/06/19 00:32:36;;;;;;;1999.90;999.90;;;23.80;99.90;;;;;;5018423;28;20252;-77
2021/06/19 00:35:04;;;;;;;1999.90;999.90;;;23.60;99.90;;;;;;5035697;28;20265;-76
2021/06/19 00:37:30;;;;;;;1999.90;999.90;;;23.60;99.90;;;;;;5033641;28;20637;-77
2021/06/19 00:39:56;;;;;;;1999.90;999.90;;;23.70;99.90;;;;;;5020766;28;20276;-76
2021/06/19 00:42:22;;;;;;;1999.90;999.90;;;23.60;99.90;;;;;;5045767;28;20234;-76
2021/06/19 00:44:48;;;;;;;1999.90;999.90;;;23.60;99.90;;;;;;5041134;28;20174;-76
2021/06/19 00:47:15;;;;;;;1999.90;999.90;;;23.30;99.90;;;;;;5017615;28;20170;-76
2021/06/19 00:49:41;;;;;;;1999.90;999.90;;;23.30;99.90;;;;;;5035438;28;20194;-76
2021/06/19 00:52:07;;;;;;;1999.90;999.90;;;23.00;99.90;;;;;;5030162;28;20574;-76
2021/06/19 00:54:33;;;;;;;1999.90;999.90;;;23.10;99.90;;;;;;5036404;28;20174;-75
2021/06/19 00:57:00;;;;;;;1999.90;999.90;;;23.20;99.90;;;;;;5035201;28;20175;-76
2021/06/19 00:59:26;;;;;;;1999.90;999.90;;;23.40;99.90;;;;;;5034894;28;20642;-75
2021/06/19 01:01:53;;;;;;;1999.90;999.90;;;23.40;99.90;;;;;;5035018;28;20173;-76
2021/06/19 01:04:19;;;;;;;1999.90;999.90;;;23.50;99.90;;;;;;5017185;28;20704;-76
2021/06/19 01:06:45;;;;;;;1999.90;999.90;;;23.40;99.90;;;;;;5017171;28;20170;-77
2021/06/19 01:09:10;;;;;;;1999.90;999.90;;;23.30;99.90;;;;;;5035061;28;20653;-77
2021/06/19 01:11:40;;;;;;;1999.90;999.90;;;23.40;99.90;;;;;;5021375;28;20181;-76
2021/06/19 01:14:07;;;;;;;1999.90;999.90;;;23.40;99.90;;;;;;5043850;28;20222;-77
2021/06/19 01:16:33;;;;;;;1999.90;999.90;;;23.40;99.90;;;;;;5030695;28;20253;-76
2021/06/19 01:18:59;;;;;;;1999.90;999.90;;;23.30;99.90;;;;;;5034683;28;20170;-76
2021/06/19 01:21:29;;;;;;;1999.90;999.90;;;23.00;99.90;;;;;;5034770;28;20571;-76
2021/06/19 01:23:56;;;;;;;1999.90;999.90;;;22.80;99.90;;;;;;5000525;28;20195;-76
2021/06/19 01:26:25;;;;;;;1999.90;999.90;;;22.90;99.90;;;;;;5034540;28;20173;-76
2021/06/19 01:28:52;;;;;;;1999.90;999.90;;;23.00;99.90;;;;;;5016849;28;20179;-75
2021/06/19 01:31:19;;;;;;;1999.90;999.90;;;23.10;99.90;;;;;;5016913;28;20182;-76
2021/06/19 01:33:47;;;;;;;1999.90;999.90;;;23.10;99.90;;;;;;5034098;28;20681;-76
2021/06/19 01:36:13;;;;;;;1999.90;999.90;;;23.00;99.90;;;;;;5033244;28;20170;-76
2021/06/19 01:38:49;;;;;;;1999.90;999.90;;;22.90;99.90;;;;;;5034496;28;20603;-76
2021/06/19 01:41:21;;;;;;;1999.90;999.90;;;22.80;99.90;;;;;;5016699;28;20191;-76
2021/06/19 01:43:48;;;;;;;1999.90;999.90;;;22.80;99.90;;;;;;5034236;28;20681;-76
2021/06/19 01:46:15;;;;;;;1999.90;999.90;;;22.60;99.90;;;;;;5034276;28;20174;-76
2021/06/19 01:48:41;;;;;;;1999.90;999.90;;;22.60;99.90;;;;;;5030364;28;20194;-77
2021/06/19 01:51:08;;;;;;;1999.90;999.90;;;22.60;99.90;;;;;;5014625;28;20185;-76
2021/06/19 01:53:37;;;;;;;1999.90;999.90;;;22.70;99.90;;;;;;5032527;28;20210;-76
2021/06/19 01:56:03;;;;;;;1999.90;999.90;;;22.80;99.90;;;;;;5034069;28;20174;-76
2021/06/19 01:58:30;;;;;;;1999.90;999.90;;;22.70;99.90;;;;;;5034126;28;20175;-76
2021/06/19 02:00:55;;;;;;;1999.90;999.90;;;22.80;99.90;;;;;;5033776;28;20186;-76
2021/06/19 02:03:21;;;;;;;1999.90;999.90;;;22.80;99.90;;;;;;5016116;28;20194;-76
2021/06/19 02:05:47;;;;;;;1999.90;999.90;;;22.90;99.90;;;;;;5033825;28;20181;-77
2021/06/19 02:08:12;;;;;;;1999.90;999.90;;;22.80;99.90;;;;;;5033863;28;20530;-76
2021/06/19 02:10:41;;;;;;;1999.90;999.90;;;23.00;99.90;;;;;;5016043;28;20192;-76
2021/06/19 02:13:07;;;;;;;1999.90;999.90;;;23.00;99.90;;;;;;5015717;28;20203;-76
2021/06/19 02:15:35;;;;;;;1999.90;999.90;;;23.00;99.90;;;;;;5033671;28;20182;-77
2021/06/19 02:18:01;;;;;;;1999.90;999.90;;;22.60;99.90;;;;;;5033720;28;20727;-76
2021/06/19 02:20:27;;;;;;;1999.90;999.90;;;22.70;99.90;;;;;;5033628;28;20244;-76
2021/06/19 02:22:53;;;;;;;1999.90;999.90;;;22.80;99.90;;;;;;5033405;28;20607;-76
2021/06/19 02:25:23;;;;;;;1999.90;999.90;;;22.80;99.90;;;;;;5027583;28;20175;-76
2021/06/19 02:28:02;;;;;;;1999.90;999.90;;;22.80;99.90;;;;;;5030721;28;20166;-76
2021/06/19 02:30:40;;;;;;;1999.90;999.90;;;22.80;99.90;;;;;;5036556;28;20170;-76
2021/06/19 02:33:06;;;;;;;1999.90;999.90;;;22.70;99.90;;;;;;5034417;28;20264;-77
2021/06/19 02:35:34;;;;;;;1999.90;999.90;;;22.70;99.90;;;;;;5027126;28;20325;-76
2021/06/19 02:38:01;;;;;;;1999.90;999.90;;;22.60;99.90;;;;;;5029708;28;20519;-75
2021/06/19 02:40:30;;;;;;;1999.90;999.90;;;22.50;99.90;;;;;;5014261;28;20190;-77
2021/06/19 02:42:56;;;;;;;1999.90;999.90;;;22.50;99.90;;;;;;5014241;28;20222;-76
2021/06/19 02:45:22;;;;;;;1999.90;999.90;;;22.50;99.90;;;;;;5011991;28;20641;-77
2021/06/19 02:47:50;;;;;;;1999.90;999.90;;;22.40;99.90;;;;;;5010008;28;20536;-77
2021/06/19 02:50:19;;;;;;;1999.90;999.90;;;22.30;99.90;;;;;;5016172;28;20223;-77
2021/06/19 02:52:45;;;;;;;1999.90;999.90;;;22.30;99.90;;;;;;5026497;28;20268;-77
2021/06/19 02:55:13;;;;;;;1999.90;999.90;;;22.20;99.90;;;;;;5012384;28;20175;-77
2021/06/19 02:57:39;;;;;;;1999.90;999.90;;;22.10;99.90;;;;;;5017018;28;20198;-77
2021/06/19 03:00:06;;;;;;;1999.90;999.90;;;22.10;99.90;;;;;;5020743;28;20857;-77
2021/06/19 03:02:32;;;;;;;1999.90;999.90;;;22.10;99.90;;;;;;5011172;28;20199;-77
2021/06/19 03:04:58;;;;;;;1999.90;999.90;;;22.10;99.90;;;;;;5013347;28;20658;-77
2021/06/19 03:07:23;;;;;;;1999.90;999.90;;;22.10;99.90;;;;;;5013165;28;20171;-77
2021/06/19 03:09:49;;;;;;;1999.90;999.90;;;22.20;99.90;;;;;;5030797;28;20182;-76
2021/06/19 03:12:15;;;;;;;1999.90;999.90;;;22.20;99.90;;;;;;5032022;28;20209;-76
2021/06/19 03:14:40;;;;;;;1999.90;999.90;;;22.00;99.90;;;;;;5032139;28;20241;-77
2021/06/19 03:17:06;;;;;;;1999.90;999.90;;;22.00;99.90;;;;;;5012948;28;20186;-77
2021/06/19 03:19:32;;;;;;;1999.90;999.90;;;22.10;99.90;;;;;;5030629;28;20205;-77
2021/06/19 03:22:01;;;;;;;1999.90;999.90;;;22.20;99.90;;;;;;5012999;28;20170;-76
2021/06/19 03:24:27;;;;;;;1999.90;999.90;;;22.30;99.90;;;;;;5012663;28;20549;-77
2021/06/19 03:26:54;;;;;;;1999.90;999.90;;;22.40;99.90;;;;;;5030681;28;20224;-77
2021/06/19 03:29:20;;;;;;;1999.90;999.90;;;22.40;99.90;;;;;;5030634;28;20653;-76
2021/06/19 03:31:46;;;;;;;1999.90;999.90;;;22.40;99.90;;;;;;5012571;28;20174;-74
2021/06/19 03:34:12;;;;;;;1999.90;999.90;;;22.20;99.90;;;;;;5030618;28;20177;-77
2021/06/19 03:36:37;;;;;;;1999.90;999.90;;;22.10;99.90;;;;;;5030578;28;20170;-77
2021/06/19 03:39:04;;;;;;;1999.90;999.90;;;22.10;99.90;;;;;;5022334;28;20260;-76
2021/06/19 03:41:29;;;;;;;1999.90;999.90;;;22.00;99.90;;;;;;5032002;28;20197;-77
2021/06/19 03:43:55;;;;;;;1999.90;999.90;;;22.00;99.90;;;;;;5031332;28;21094;-77
2021/06/19 03:46:21;;;;;;;1999.90;999.90;;;22.00;99.90;;;;;;5030620;28;20185;-76
2021/06/19 03:48:47;;;;;;;1999.90;999.90;;;22.00;99.90;;;;;;5030412;28;20181;-76
2021/06/19 03:51:12;;;;;;;1999.90;999.90;;;22.00;99.90;;;;;;5012714;28;20307;-76
2021/06/19 03:53:38;;;;;;;1999.90;999.90;;;22.00;99.90;;;;;;5044929;28;20336;-77
2021/06/19 03:56:04;;;;;;;1999.90;999.90;;;22.00;99.90;;;;;;5031211;28;20304;-77
2021/06/19 03:58:30;;;;;;;1999.90;999.90;;;22.00;99.90;;;;;;5030513;28;20271;-77
2021/06/19 04:00:56;;;;;;;1999.90;999.90;;;22.00;99.90;;;;;;5031128;28;20979;-77
2021/06/19 04:03:21;;;;;;;1999.90;999.90;;;22.00;99.90;;;;;;5032604;28;20202;-77
2021/06/19 04:05:47;;;;;;;1999.90;999.90;;;22.00;99.90;;;;;;5022668;28;20178;-76
2021/06/19 04:08:13;;;;;;;1999.90;999.90;;;22.00;99.90;;;;;;5033501;28;20201;-77
2021/06/19 04:10:39;;;;;;;1999.90;999.90;;;21.90;99.90;;;;;;5032873;28;20170;-77
2021/06/19 04:13:05;;;;;;;1999.90;999.90;;;21.90;99.90;;;;;;5048745;28;20217;-76
2021/06/19 04:15:31;;;;;;;1999.90;999.90;;;21.90;99.90;;;;;;5044155;28;20192;-77
2021/06/19 04:17:56;;;;;;;1999.90;999.90;;;21.80;99.90;;;;;;5035922;28;20261;-75
2021/06/19 04:20:22;;;;;;;1999.90;999.90;;;21.80;99.90;;;;;;5033320;28;20233;-75
2021/06/19 04:22:48;;;;;;;1999.90;999.90;;;21.80;99.90;;;;;;5016942;28;20195;-76
2021/06/19 04:25:16;;;;;;;1999.90;999.90;;;21.80;99.90;;;;;;5045708;28;20175;-76
2021/06/19 04:27:49;;;;;;;1999.90;999.90;;;21.80;99.90;;;;;;5033218;28;20199;-76
2021/06/19 04:30:16;;;;;;;1999.90;999.90;;;21.80;99.90;;;;;;5030791;28;20261;-76
2021/06/19 04:32:42;;;;;;;1999.90;999.90;;;21.90;99.90;;;;;;5009915;28;20209;-77
2021/06/19 04:35:08;;;;;;;1999.90;999.90;;;21.90;99.90;;;;;;5034047;28;20170;-76
2021/06/19 04:37:34;;;;;;;1999.90;999.90;;;22.00;99.90;;;;;;5023141;28;20536;-76
2021/06/19 04:42:35;;;;;;;1999.90;999.90;;;22.10;99.90;;;;;;5028027;28;20187;-77
2021/06/19 04:45:02;;;;;;;1999.90;999.90;;;22.00;99.90;;;;;;5007204;28;20171;-76
2021/06/19 04:47:29;;;;;;;1999.90;999.90;;;22.10;99.90;;;;;;5027006;28;20258;-77
2021/06/19 04:49:56;;;;;;;1999.90;999.90;;;22.20;99.90;;;;;;5013678;28;20183;-77
2021/06/19 04:52:23;;;;;;;1999.90;999.90;;;22.30;99.90;;;;;;5030204;28;20205;-77
2021/06/19 04:54:49;;;;;;;1999.90;999.90;;;22.40;99.90;;;;;;5044686;28;20700;-77
2021/06/19 04:57:15;;;;;;;1999.90;999.90;;;22.40;99.90;;;;;;5047843;28;20746;-77
2021/06/19 04:59:40;;;;;;;1999.90;999.90;;;22.30;99.90;;;;;;5033624;28;20174;-77
2021/06/19 05:02:07;;;;;;;1999.90;999.90;;;22.20;99.90;;;;;;5017574;28;20665;-75
2021/06/19 05:04:33;;;;;;;1999.90;999.90;;;22.20;99.90;;;;;;5018750;28;20657;-76
2021/06/19 05:06:58;;;;;;;1999.90;999.90;;;22.40;99.90;;;;;;5013361;28;20201;-77
2021/06/19 05:09:24;;;;;;;1999.90;999.90;;;22.40;99.90;;;;;;5021990;28;20202;-77
2021/06/19 05:11:50;;;;;;;1999.90;999.90;;;22.40;99.90;;;;;;5029154;28;20269;-77
2021/06/19 05:14:15;;;;;;;1999.90;999.90;;;22.20;99.90;;;;;;5034672;28;20188;-77
2021/06/19 05:16:41;;;;;;;1999.90;999.90;;;22.20;99.90;;;;;;5034825;28;20170;-77
2021/06/19 05:19:07;;;;;;;1999.90;999.90;;;22.20;99.90;;;;;;5035481;28;20200;-77
2021/06/19 05:21:33;;;;;;;1999.90;999.90;;;22.20;99.90;;;;;;5017169;28;20190;-77
2021/06/19 05:23:58;;;;;;;1999.90;999.90;;;22.40;99.90;;;;;;5035347;28;20187;-77
2021/06/19 05:26:24;;;;;;;1999.90;999.90;;;22.50;99.90;;;;;;5035341;28;20174;-77
2021/06/19 05:28:50;;;;;;;1999.90;999.90;;;22.40;99.90;;;;;;5017246;28;20174;-76
2021/06/19 05:31:15;;;;;;;1999.90;999.90;;;22.40;99.90;;;;;;5026632;28;20182;-77
2021/06/19 05:33:41;;;;;;;1999.90;999.90;;;22.60;99.90;;;;;;5016412;28;20282;-76
2021/06/19 05:36:07;;;;;;;1999.90;999.90;;;22.80;99.90;;;;;;5034013;28;20265;-77
2021/06/19 05:38:32;;;;;;;1999.90;999.90;;;23.00;99.90;;;;;;5034352;28;20178;-77
2021/06/19 05:40:58;;;;;;;1999.90;999.90;;;23.10;99.90;;;;;;5016516;28;20344;-77
2021/06/19 05:43:24;;;;;;;1999.90;999.90;;;23.10;99.90;;;;;;5033656;28;20194;-77
2021/06/19 05:45:52;;;;;;;1999.90;999.90;;;23.20;99.90;;;;;;5034157;28;20198;-76
2021/06/19 05:48:18;;;;;;;1999.90;999.90;;;23.30;99.90;;;;;;5033707;28;20169;-77
2021/06/19 05:50:44;;;;;;;1999.90;999.90;;;23.40;99.90;;;;;;5034224;28;20178;-78
2021/06/19 05:53:09;;;;;;;1999.90;999.90;;;23.50;99.90;;;;;;5067731;22;20523;-77
2021/06/19 05:55:35;;;;;;;1999.90;999.90;;;23.50;99.90;;;;;;5092438;28;20249;-78
2021/06/19 05:58:01;;;;;;;1999.90;999.90;;;23.60;99.90;;;;;;5096981;28;20191;-79
2021/06/19 06:00:27;;;;;;;1999.90;999.90;;;23.60;99.90;;;;;;5082475;28;20196;-79
2021/06/19 06:02:53;;;;;;;1999.90;999.90;;;23.60;99.90;;;;;;5094833;28;20245;-79
2021/06/19 06:05:19;;;;;;;1999.90;999.90;;;23.60;99.90;;;;;;5075297;28;20201;-79
2021/06/19 06:07:44;;;;;;;1999.90;999.90;;;23.60;99.90;;;;;;5075802;28;20169;-78
2021/06/19 06:10:11;;;;;;;1999.90;999.90;;;23.60;99.90;;;;;;5058330;28;20173;-77
2021/06/19 06:12:37;;;;;;;1999.90;999.90;;;23.60;99.90;;;;;;5076228;28;20173;-77
2021/06/19 06:15:03;;;;;;;1999.90;999.90;;;23.70;99.90;;;;;;5072988;28;20195;-77
2021/06/19 06:17:29;;;;;;;1999.90;999.90;;;23.60;99.90;;;;;;5073944;28;20173;-79
2021/06/19 06:19:54;;;;;;;1999.90;999.90;;;23.70;99.90;;;;;;5081491;28;20208;-77
2021/06/19 06:22:20;;;;;;;1999.90;999.90;;;23.60;99.90;;;;;;5078557;28;20667;-78
2021/06/19 06:24:46;;;;;;;1999.90;999.90;;;23.60;99.90;;;;;;5078525;28;20632;-78
2021/06/19 06:27:11;;;;;;;1999.90;999.90;;;23.80;99.90;;;;;;5074170;28;20214;-77
2021/06/19 06:29:37;;;;;;;1999.90;999.90;;;23.90;99.90;;;;;;5056350;28;20252;-77
2021/06/19 06:32:03;;;;;;;1999.90;999.90;;;23.90;99.90;;;;;;5064530;28;20180;-77
2021/06/19 06:34:29;;;;;;;1999.90;999.90;;;23.70;99.90;;;;;;5074398;28;20216;-78
2021/06/19 06:36:54;;;;;;;1999.90;999.90;;;23.70;99.90;;;;;;5072785;28;20602;-76
2021/06/19 06:39:20;;;;;;;1999.90;999.90;;;23.90;99.90;;;;;;5073971;28;20196;-77
2021/06/19 06:41:46;;;;;;;1999.90;999.90;;;23.90;99.90;;;;;;5065006;28;20220;-78
2021/06/19 06:44:12;;;;;;;1999.90;999.90;;;23.60;99.90;;;;;;5070962;28;20225;-77
2021/06/19 06:46:37;;;;;;;1999.90;999.90;;;23.70;99.90;;;;;;5076008;28;20172;-78
2021/06/19 06:49:04;;;;;;;1999.90;999.90;;;23.80;99.90;;;;;;5074233;28;20173;-79
2021/06/19 06:51:33;;;;;;;1999.90;999.90;;;23.90;99.90;;;;;;5055489;28;20207;-78
2021/06/19 06:53:58;;;;;;;1999.90;999.90;;;23.90;99.90;;;;;;5074186;28;20213;-77
2021/06/19 06:56:24;;;;;;;1999.90;999.90;;;24.00;99.90;;;;;;5073029;28;20207;-77
2021/06/19 06:58:49;;;;;;;1999.90;999.90;;;24.10;99.90;;;;;;5073963;28;20175;-78
2021/06/19 07:01:16;;;;;;;1999.90;999.90;;;24.20;99.90;;;;;;5057230;28;20181;-77
2021/06/19 07:03:42;;;;;;;1999.90;999.90;;;24.30;99.90;;;;;;5075096;28;20201;-78
2021/06/19 07:06:07;;;;;;;1999.90;999.90;;;24.10;99.90;;;;;;5074696;28;20168;-79
2021/06/19 07:08:33;;;;;;;1999.90;999.90;;;24.20;99.90;;;;;;5076382;28;20259;-79
2021/06/19 07:10:59;;;;;;;1999.90;999.90;;;24.00;99.90;;;;;;5057225;28;20176;-77
2021/06/19 07:13:24;;;;;;;1999.90;999.90;;;24.10;99.90;;;;;;5068556;28;20243;-78
2021/06/19 07:15:50;;;;;;;1999.90;999.90;;;24.20;99.90;;;;;;5073481;28;20168;-76
2021/06/19 07:18:16;;;;;;;1999.90;999.90;;;24.20;99.90;;;;;;5073351;28;20549;-77
2021/06/19 07:20:41;;;;;;;1999.90;999.90;;;24.20;99.90;;;;;;5074223;28;20228;-78
2021/06/19 07:23:07;;;;;;;1999.90;999.90;;;24.30;99.90;;;;;;5073428;28;20193;-77
2021/06/19 07:25:33;;;;;;;1999.90;999.90;;;24.40;99.90;;;;;;5073791;28;20700;-76
2021/06/19 07:27:59;;;;;;;1999.90;999.90;;;24.40;99.90;;;;;;5073992;28;20196;-77
2021/06/19 07:30:26;;;;;;;1999.90;999.90;;;24.70;99.90;;;;;;5071318;28;20169;-76
2021/06/19 07:32:55;;;;;;;1999.90;999.90;;;24.80;99.90;;;;;;5055745;28;20169;-77
2021/06/19 07:35:22;;;;;;;1999.90;999.90;;;25.00;99.90;;;;;;5077417;28;20169;-78
2021/06/19 07:37:48;;;;;;;1999.90;999.90;;;25.20;99.90;;;;;;5077439;28;20169;-78
2021/06/19 07:40:14;;;;;;;1999.90;999.90;;;25.10;99.90;;;;;;5077878;28;20192;-78
2021/06/19 07:42:40;;;;;;;1999.90;999.90;;;25.20;99.90;;;;;;5077441;28;20231;-77
2021/06/19 07:45:08;;;;;;;1999.90;999.90;;;25.20;99.90;;;;;;5076181;28;20667;-78
2021/06/19 07:47:34;;;;;;;1999.90;999.90;;;25.40;99.90;;;;;;5061030;28;20161;-79
2021/06/19 07:50:00;;;;;;;1999.90;999.90;;;25.60;99.90;;;;;;5080512;28;20173;-79
2021/06/19 07:52:25;;;;;;;1999.90;999.90;;;25.70;99.90;;;;;;5079287;28;20176;-76
2021/06/19 07:54:51;;;;;;;1999.90;999.90;;;25.70;99.90;;;;;;5076766;28;20260;-77
2021/06/19 07:57:17;;;;;;;1999.90;999.90;;;25.70;99.90;;;;;;5077126;28;20523;-78
2021/06/19 07:59:43;;;;;;;1999.90;999.90;;;25.80;99.90;;;;;;5076497;28;20218;-78
2021/06/19 08:02:09;;;;;;;1999.90;999.90;;;25.90;99.90;;;;;;5076816;28;20535;-77
2021/06/19 08:04:35;;;;;;;1999.90;999.90;;;25.80;99.90;;;;;;5077032;28;20181;-78
2021/06/19 08:07:01;;;;;;;1999.90;999.90;;;26.00;99.90;;;;;;5059032;28;20605;-77
2021/06/19 08:09:27;;;;;;;1999.90;999.90;;;26.10;99.90;;;;;;5059063;28;20165;-77
2021/06/19 08:11:53;;;;;;;1999.90;999.90;;;26.20;99.90;;;;;;5076739;28;20735;-77
2021/06/19 08:14:20;;;;;;;1999.90;999.90;;;26.20;99.90;;;;;;5076118;28;20232;-77
2021/06/19 08:16:49;;;;;;;1999.90;999.90;;;26.20;99.90;;;;;;5076716;28;20192;-78
2021/06/19 08:19:15;;;;;;;1999.90;999.90;;;26.30;99.90;;;;;;5077517;28;20211;-78
2021/06/19 08:21:41;;;;;;;1999.90;999.90;;;26.30;99.90;;;;;;5058761;28;20208;-77
2021/06/19 08:24:08;;;;;;;1999.90;999.90;;;26.40;99.90;;;;;;5077269;28;20189;-77
2021/06/19 08:26:36;;;;;;;1999.90;999.90;;;26.50;99.90;;;;;;5076516;28;20203;-78
2021/06/19 08:29:03;;;;;;;1999.90;999.90;;;26.60;99.90;;;;;;5078519;28;20540;-78
2021/06/19 08:31:32;;;;;;;1999.90;999.90;;;26.40;99.90;;;;;;5076157;28;20181;-77
2021/06/19 08:33:57;;;;;;;1999.90;999.90;;;26.40;99.90;;;;;;5073976;28;20213;-77
2021/06/19 08:36:23;;;;;;;1999.90;999.90;;;26.50;99.90;;;;;;5058552;28;20180;-77
2021/06/19 08:38:49;;;;;;;1999.90;999.90;;;26.80;99.90;;;;;;5065464;28;20176;-76
2021/06/19 08:41:15;;;;;;;1999.90;999.90;;;26.80;99.90;;;;;;5058825;28;20203;-76
2021/06/19 08:43:41;;;;;;;1999.90;999.90;;;26.80;99.90;;;;;;5075632;28;20201;-77
2021/06/19 08:46:09;;;;;;;1999.90;999.90;;;27.00;99.90;;;;;;5057094;28;20169;-77
2021/06/19 08:48:37;;;;;;;1999.90;999.90;;;27.10;99.90;;;;;;5075565;28;20180;-77
2021/06/19 08:51:03;;;;;;;1999.90;999.90;;;27.00;99.90;;;;;;5057769;28;20169;-77
2021/06/19 08:53:28;;;;;;;1999.90;999.90;;;27.00;99.90;;;;;;5075223;28;20270;-76
2021/06/19 08:55:54;;;;;;;1999.90;999.90;;;27.10;99.90;;;;;;5057355;28;20193;-77
2021/06/19 08:58:20;;;;;;;1999.90;999.90;;;27.30;99.90;;;;;;5057540;28;20180;-77
2021/06/19 09:00:46;;;;;;;1999.90;999.90;;;27.30;99.90;;;;;;5075499;28;20568;-76
2021/06/19 09:03:27;;;;;;;1999.90;999.90;;;27.30;99.90;;;;;;5057060;28;20197;-75
2021/06/19 09:06:13;;;;;;;1999.90;999.90;;;27.40;99.90;;;;;;5043083;28;20641;-77
2021/06/19 09:09:04;;;;;;;1999.90;999.90;;;27.50;99.90;;;;;;5075552;28;20173;-77
2021/06/19 09:11:34;;;;;;;1999.90;999.90;;;27.70;99.90;;;;;;5075106;28;20165;-75
2021/06/19 09:14:03;;;;;;;1999.90;999.90;;;27.60;99.90;;;;;;5071130;28;20292;-76
2021/06/19 09:16:29;;;;;;;1999.90;999.90;;;27.70;99.90;;;;;;5060919;28;20200;-76
2021/06/19 09:18:54;;;;;;;1999.90;999.90;;;27.60;99.90;;;;;;5040094;28;20207;-77
2021/06/19 09:21:31;;;;;;;1999.90;999.90;;;27.50;99.90;;;;;;5056651;28;20192;-76
2021/06/19 09:23:57;;;;;;;1999.90;999.90;;;27.50;99.90;;;;;;5074715;28;20197;-77
2021/06/19 09:26:28;;;;;;;1999.90;999.90;;;27.50;99.90;;;;;;5074858;28;20184;-76
2021/06/19 09:28:56;;;;;;;1999.90;999.90;;;27.50;99.90;;;;;;5055527;28;20711;-76
2021/06/19 09:31:36;;;;;;;1999.90;999.90;;;27.70;99.90;;;;;;5074660;28;20243;-75
2021/06/19 09:34:20;;;;;;;1999.90;999.90;;;27.70;99.90;;;;;;5074988;28;20287;-77
2021/06/19 09:37:07;;;;;;;1999.90;999.90;;;27.60;99.90;;;;;;5074852;28;20584;-76
2021/06/19 09:39:35;;;;;;;1999.90;999.90;;;27.70;99.90;;;;;;5075265;28;20257;-75
2021/06/19 09:42:04;;;;;;;1999.90;999.90;;;27.70;99.90;;;;;;5061439;28;20221;-76
2021/06/19 09:44:38;;;;;;;1999.90;999.90;;;27.70;99.90;;;;;;5074455;28;20276;-77
2021/06/19 09:47:08;;;;;;;1999.90;999.90;;;27.60;99.90;;;;;;5076357;28;20184;-78
2021/06/19 09:49:39;;;;;;;1999.90;999.90;;;27.60;99.90;;;;;;5073963;28;20713;-79
2021/06/19 09:52:06;;;;;;;1999.90;999.90;;;27.70;99.90;;;;;;5077476;28;20168;-78
2021/06/19 09:54:42;;;;;;;1999.90;999.90;;;27.90;99.90;;;;;;5075108;28;20216;-77
2021/06/19 09:57:16;;;;;;;1999.90;999.90;;;27.90;99.90;;;;;;5069194;28;20169;-79
2021/06/19 09:59:43;;;;;;;1999.90;999.90;;;28.00;99.90;;;;;;5075980;28;20189;-78
2021/06/19 10:02:19;;;;;;;1999.90;999.90;;;28.00;99.90;;;;;;5060621;28;20215;-78
2021/06/19 10:04:50;;;;;;;1999.90;999.90;;;28.10;99.90;;;;;;5074584;28;20239;-79
2021/06/19 10:07:17;;;;;;;1999.90;999.90;;;28.10;99.90;;;;;;5076520;28;20180;-80
2021/06/19 10:09:56;;;;;;;1999.90;999.90;;;28.10;99.90;;;;;;5080771;28;20173;-79
2021/06/19 10:12:24;;;;;;;1999.90;999.90;;;28.30;99.90;;;;;;5083285;28;20177;-81
2021/06/19 10:14:54;;;;;;;1999.90;999.90;;;28.40;99.90;;;;;;5078216;28;20201;-79
2021/06/19 10:17:23;;;;;;;1999.90;999.90;;;28.50;99.90;;;;;;5079620;28;20176;-82
2021/06/19 10:19:50;;;;;;;1999.90;999.90;;;28.60;99.90;;;;;;5068254;28;20169;-81
2021/06/19 10:22:16;;;;;;;1999.90;999.90;;;28.60;99.90;;;;;;5086769;28;20181;-80
2021/06/19 10:24:44;;;;;;;1999.90;999.90;;;28.60;99.90;;;;;;5063267;28;20211;-82
2021/06/19 10:27:16;;;;;;;1999.90;999.90;;;28.60;99.90;;;;;;5069500;28;20176;-81
2021/06/19 10:29:44;;;;;;;1999.90;999.90;;;28.80;99.90;;;;;;5086124;28;20177;-81
2021/06/19 10:32:10;;;;;;;1999.90;999.90;;;28.80;99.90;;;;;;5082058;28;20766;-81
2021/06/19 10:34:38;;;;;;;1999.90;999.90;;;28.70;99.90;;;;;;5064877;28;20205;-79
2021/06/19 10:37:08;;;;;;;1999.90;999.90;;;28.80;99.90;;;;;;5075856;28;20184;-80
2021/06/19 10:39:44;;;;;;;1999.90;999.90;;;28.80;99.90;;;;;;5082839;28;20201;-81
2021/06/19 10:42:16;;;;;;;1999.90;999.90;;;28.90;99.90;;;;;;5066200;28;20199;-81
2021/06/19 10:44:59;;;;;;;1999.90;999.90;;;29.00;99.90;;;;;;5065230;28;20243;-82
2021/06/19 10:47:30;;;;;;;1999.90;999.90;;;29.20;99.90;;;;;;5067301;28;20568;-82
2021/06/19 10:49:57;;;;;;;1999.90;999.90;;;29.30;99.90;;;;;;5067737;28;20173;-81
2021/06/19 10:52:40;;;;;;;1999.90;999.90;;;29.50;99.90;;;;;;5084000;28;20169;-80
2021/06/19 10:55:08;;;;;;;1999.90;999.90;;;29.50;99.90;;;;;;5079137;28;20213;-82
2021/06/19 10:58:01;;;;;;;1999.90;999.90;;;29.50;99.90;;;;;;5085531;28;20184;-80
2021/06/19 11:00:42;;;;;;;1999.90;999.90;;;29.60;99.90;;;;;;5081088;28;20197;-80
2021/06/19 11:03:08;;;;;;;1999.90;999.90;;;29.60;99.90;;;;;;5063607;28;20228;-79
2021/06/19 11:05:43;;;;;;;1999.90;999.90;;;29.60;99.90;;;;;;5079703;28;20180;-82
2021/06/19 11:08:08;;;;;;;1999.90;999.90;;;29.70;99.90;;;;;;5085309;28;20168;-84
2021/06/19 11:10:43;;;;;;;1999.90;999.90;;;29.70;99.90;;;;;;5084262;28;20783;-81
2021/06/19 11:13:27;;;;;;;1999.90;999.90;;;29.80;99.90;;;;;;5085093;28;20196;-80
2021/06/19 11:16:03;;;;;;;1999.90;999.90;;;29.70;99.90;;;;;;5085168;28;20173;-81
2021/06/19 11:18:48;;;;;;;1999.90;999.90;;;29.50;99.90;;;;;;5080536;28;20176;-81
2021/06/19 11:21:20;;;;;;;1999.90;999.90;;;29.60;99.90;;;;;;5085616;28;20185;-82
2021/06/19 11:24:05;;;;;;;1999.90;999.90;;;29.70;99.90;;;;;;5067740;28;20652;-81
2021/06/19 11:26:59;;;;;;;1999.90;999.90;;;29.70;99.90;;;;;;5081258;28;20169;-80
2021/06/19 11:29:43;;;;;;;1999.90;999.90;;;29.80;99.90;;;;;;5080090;28;20181;-81
2021/06/19 11:32:36;;;;;;;1999.90;999.90;;;29.80;99.90;;;;;;5084468;28;20173;-81
2021/06/19 11:35:20;;;;;;;1999.90;999.90;;;29.90;99.90;;;;;;5085177;28;20244;-81
2021/06/19 11:38:01;;;;;;;1999.90;999.90;;;30.00;99.90;;;;;;5085958;28;20172;-83
2021/06/19 11:40:32;;;;;;;1999.90;999.90;;;30.20;99.90;;;;;;5085198;28;20188;-79
2021/06/19 11:42:58;;;;;;;1999.90;999.90;;;30.40;99.90;;;;;;5084086;28;20263;-82
2021/06/19 11:45:30;;;;;;;1999.90;999.90;;;30.50;99.90;;;;;;5086402;28;20360;-82
2021/06/19 11:48:08;;;;;;;1999.90;999.90;;;30.60;99.90;;;;;;5079877;28;20174;-77
2021/06/19 11:50:39;;;;;;;1999.90;999.90;;;30.40;99.90;;;;;;5054516;28;20165;-76
2021/06/19 11:53:25;;;;;;;1999.90;999.90;;;30.40;99.90;;;;;;5072281;28;20209;-77
2021/06/19 11:55:51;;;;;;;1999.90;999.90;;;30.50;99.90;;;;;;5080726;22;20312;-76
2021/06/19 11:58:17;;;;;;;1999.90;999.90;;;30.60;99.90;;;;;;5034053;28;20174;-76
2021/06/19 12:00:55;;;;;;;1999.90;999.90;;;30.60;99.90;;;;;;5051215;28;20619;-76
2021/06/19 12:03:24;;;;;;;1999.90;999.90;;;30.40;99.90;;;;;;5051283;28;20292;-76
2021/06/19 12:05:51;;;;;;;1999.90;999.90;;;30.30;99.90;;;;;;5051853;28;20309;-76